Time;durP1;ratioP1;P1;durP2;ratioP2;P2;SDS_P1;SDS_P2;PMS_P1;PMS_P2;Temp;Humidity;BMP_temperature;BMP_pressure;BME280_temperature;BME280_humidity;BME280_pressure;Samples;Min_cycle;Max_cycle;Signal;HPM_P1;HPM_P2
2021/06/15 00:00:14;;;;;;;19.62;17.60;;;;;;;17.43;82.31;100572.43;1757945;81;21934;-78
2021/06/15 00:02:41;;;;;;;21.37;17.62;;;;;;;17.42;81.97;100578.72;1757847;81;20883;-77
2021/06/15 00:05:10;;;;;;;22.62;16.80;;;;;;;17.39;81.72;100574.54;1757947;80;20888;-78
2021/06/15 00:07:38;;;;;;;24.80;18.05;;;;;;;17.38;81.48;100567.05;1757832;81;20940;-78
2021/06/15 00:10:12;;;;;;;22.25;17.98;;;;;;;17.36;81.35;100577.45;1758197;81;20852;-78
2021/06/15 00:12:39;;;;;;;22.25;16.90;;;;;;;17.32;81.37;100571.59;1758012;81;21099;-78
2021/06/15 00:15:08;;;;;;;27.95;16.15;;;;;;;17.29;81.49;100568.38;1757755;80;21398;-78
2021/06/15 00:17:35;;;;;;;18.35;15.30;;;;;;;17.25;81.73;100562.49;1757874;80;21361;-77
2021/06/15 00:20:04;;;;;;;23.60;16.30;;;;;;;17.19;82.01;100557.77;1757938;80;20944;-76
2021/06/15 00:22:31;;;;;;;20.52;16.77;;;;;;;17.16;82.54;100565.50;1757931;80;21489;-78
2021/06/15 00:24:58;;;;;;;22.13;16.37;;;;;;;17.16;82.73;100565.97;1758120;81;21952;-78
2021/06/15 00:27:29;;;;;;;24.77;18.42;;;;;;;17.17;83.06;100561.86;1757830;81;21381;-78
2021/06/15 00:29:54;;;;;;;25.90;18.77;;;;;;;17.19;83.13;100558.59;1758157;81;20976;-79
2021/06/15 00:32:21;;;;;;;25.37;17.52;;;;;;;17.20;83.49;100550.98;1757884;80;20980;-77
2021/06/15 00:34:48;;;;;;;27.05;16.62;;;;;;;17.24;83.71;100542.28;1758247;81;21338;-78
2021/06/15 00:37:15;;;;;;;18.75;15.65;;;;;;;17.27;82.94;100534.05;1757963;81;21116;-79
2021/06/15 00:39:43;;;;;;;21.37;15.08;;;;;;;17.29;82.76;100541.38;1758158;81;21488;-77
2021/06/15 00:42:10;;;;;;;24.90;15.72;;;;;;;17.29;82.35;100546.67;1757927;81;20935;-76
2021/06/15 00:44:37;;;;;;;20.15;14.03;;;;;;;17.27;82.04;100532.72;1758099;80;21710;-77
2021/06/15 00:47:04;;;;;;;22.07;15.95;;;;;;;17.26;81.69;100531.55;1757989;80;20904;-77
2021/06/15 00:49:34;;;;;;;19.12;16.73;;;;;;;17.22;81.61;100529.66;1757857;80;21550;-76
2021/06/15 00:52:04;;;;;;;19.27;15.65;;;;;;;17.19;81.56;100532.09;1757698;81;20964;-76
2021/06/15 00:54:31;;;;;;;25.77;15.98;;;;;;;17.17;81.32;100527.41;1757948;81;20912;-76
2021/06/15 00:56:57;;;;;;;19.57;14.47;;;;;;;17.14;81.70;100536.97;1757841;81;20928;-77
2021/06/15 00:59:25;;;;;;;21.52;15.93;;;;;;;17.12;81.85;100524.81;1757895;81;20968;-75
2021/06/15 01:01:54;;;;;;;21.85;13.78;;;;;;;17.07;82.04;100525.22;1758106;81;22612;-76
2021/06/15 01:04:22;;;;;;;19.87;13.80;;;;;;;17.07;82.04;100525.22;1757844;81;20900;-77
2021/06/15 01:06:58;;;;;;;27.27;15.48;;;;;;;17.08;82.43;100525.59;1757947;81;20865;-76
2021/06/15 01:10:09;;;;;;;19.50;15.43;;;;;;;17.11;82.69;100527.12;1757846;80;20880;-76
2021/06/15 01:12:58;;;;;;;18.05;15.60;;;;;;;17.12;82.92;100516.86;1757983;81;20849;-76
2021/06/15 01:16:01;;;;;;;17.75;14.90;;;;;;;17.12;83.21;100510.23;1757963;80;22196;-76
2021/06/15 01:18:28;;;;;;;19.95;15.10;;;;;;;17.13;83.23;100510.60;1758236;80;21322;-78
2021/06/15 01:21:05;;;;;;;21.17;15.43;;;;;;;17.11;83.30;100507.25;1757854;81;20881;-79
2021/06/15 01:23:43;;;;;;;18.87;13.53;;;;;;;17.08;83.60;100507.05;1758208;80;21109;-79
2021/06/15 01:26:56;;;;;;;18.82;14.13;;;;;;;17.09;83.06;100510.03;1758214;81;21018;-78
2021/06/15 01:29:33;;;;;;;18.85;13.68;;;;;;;17.10;82.76;100509.56;1757908;81;21109;-78
2021/06/15 01:32:12;;;;;;;17.70;13.72;;;;;;;17.08;82.55;100512.84;1758000;81;21046;-78
2021/06/15 01:34:42;;;;;;;16.48;14.23;;;;;;;17.03;82.29;100518.55;1755969;81;20873;-78
2021/06/15 01:37:13;;;;;;;20.35;14.05;;;;;;;17.03;82.29;100518.55;1757822;80;20881;-78
2021/06/15 01:40:06;;;;;;;24.30;15.80;;;;;;;17.02;82.19;100527.95;1758098;81;20905;-78
2021/06/15 01:42:48;;;;;;;22.02;16.12;;;;;;;16.99;82.41;100531.22;1757439;81;21174;-79
2021/06/15 01:45:27;;;;;;;22.17;15.15;;;;;;;16.97;82.42;100531.00;1757770;81;21714;-78
2021/06/15 01:48:34;;;;;;;22.82;15.98;;;;;;;16.94;82.56;100525.95;1756717;81;20861;-77
2021/06/15 01:51:03;;;;;;;18.25;13.38;;;;;;;16.89;82.75;100526.86;1758090;81;20988;-77
2021/06/15 01:53:31;;;;;;;23.18;14.60;;;;;;;16.83;83.17;100527.39;1757726;80;20984;-76
2021/06/15 01:56:02;;;;;;;20.40;15.00;;;;;;;16.82;83.55;100510.67;1716952;81;21110;-76
2021/06/15 01:58:33;;;;;;;26.68;15.63;;;;;;;16.86;83.61;100517.88;1757750;80;21792;-77
2021/06/15 02:01:01;;;;;;;20.43;15.32;;;;;;;16.86;83.61;100517.88;1758042;81;21003;-77
2021/06/15 02:03:31;;;;;;;18.80;14.93;;;;;;;16.87;83.14;100509.77;1757962;80;21918;-76
2021/06/15 02:06:00;;;;;;;19.98;16.05;;;;;;;16.87;83.06;100512.91;1741261;81;20924;-76
2021/06/15 02:08:41;;;;;;;23.02;15.43;;;;;;;16.88;83.15;100521.23;1757787;80;21147;-77
2021/06/15 02:11:10;;;;;;;20.55;15.55;;;;;;;16.87;83.01;100514.23;1756263;81;21039;-77
2021/06/15 02:13:43;;;;;;;25.00;15.32;;;;;;;16.87;83.01;100514.23;1741254;81;21322;-77
2021/06/15 02:16:28;;;;;;;16.30;14.40;;;;;;;16.85;82.88;100518.83;1756731;81;20920;-77
2021/06/15 02:19:05;;;;;;;22.10;14.50;;;;;;;16.85;82.88;100518.83;1717374;80;20944;-78
2021/06/15 02:21:36;;;;;;;18.55;14.58;;;;;;;16.85;82.74;100509.55;1757581;81;21159;-77
2021/06/15 02:24:04;;;;;;;16.27;14.47;;;;;;;16.80;82.66;100507.31;1740997;81;20971;-77
2021/06/15 02:26:31;;;;;;;16.20;12.93;;;;;;;16.83;82.62;100511.04;1757786;81;20979;-77
2021/06/15 02:28:59;;;;;;;20.90;14.83;;;;;;;16.83;82.62;100511.04;1757911;81;20996;-76
2021/06/15 02:31:34;;;;;;;18.62;13.80;;;;;;;16.82;82.71;100508.02;1757784;81;21329;-75
2021/06/15 02:34:06;;;;;;;17.77;13.32;;;;;;;16.84;82.95;100511.87;1757091;81;21196;-76
2021/06/15 02:36:35;;;;;;;17.80;14.38;;;;;;;16.86;82.97;100512.08;1757830;81;20939;-76
2021/06/15 02:39:13;;;;;;;15.35;12.75;;;;;;;16.88;83.07;100507.48;1758240;81;20975;-76
2021/06/15 02:41:43;;;;;;;17.57;13.13;;;;;;;16.92;83.15;100504.92;1757427;80;21010;-76
2021/06/15 02:44:15;;;;;;;22.35;14.45;;;;;;;16.96;82.98;100506.33;1758456;81;21569;-78
2021/06/15 02:46:43;;;;;;;15.95;13.28;;;;;;;17.01;82.79;100498.44;1740821;81;20935;-77
2021/06/15 02:49:14;;;;;;;13.98;12.50;;;;;;;17.07;82.59;100503.19;1758150;81;20960;-78
2021/06/15 02:51:50;;;;;;;19.52;14.33;;;;;;;17.13;82.72;100507.95;1757689;81;20932;-78
2021/06/15 02:54:23;;;;;;;16.67;12.47;;;;;;;17.19;82.69;100505.59;1744613;80;20861;-78
2021/06/15 02:56:53;;;;;;;19.48;12.90;;;;;;;17.26;82.50;100507.70;1744918;82;21015;-77
2021/06/15 02:59:20;;;;;;;16.50;13.13;;;;;;;17.38;82.14;100501.27;1744640;80;21139;-76
2021/06/15 03:01:50;;;;;;;15.70;11.90;;;;;;;17.44;82.47;100497.24;1744560;82;21398;-77
2021/06/15 03:04:18;;;;;;;25.68;12.45;;;;;;;17.44;82.47;100497.24;1744673;81;20917;-77
2021/06/15 03:06:45;;;;;;;14.65;11.33;;;;;;;17.49;82.07;100491.02;1744749;81;21394;-76
2021/06/15 03:09:12;;;;;;;18.23;12.70;;;;;;;17.55;81.87;100498.42;1744979;82;20929;-76
2021/06/15 03:11:47;;;;;;;17.45;12.43;;;;;;;17.59;81.76;100499.82;1744502;82;21399;-77
2021/06/15 03:14:19;;;;;;;;;;;;;;;17.64;81.76;100498.90;1747600;80;20933;-77
2021/06/15 03:16:46;;;;;;;18.00;12.95;;;;;;;17.79;81.97;100494.01;1744518;81;20125;-78
2021/06/15 03:19:17;;;;;;;15.03;13.15;;;;;;;17.79;81.97;100494.01;1733843;82;21437;-78
2021/06/15 03:21:52;;;;;;;16.50;13.05;;;;;;;17.86;81.81;100495.14;1744985;82;20979;-77
2021/06/15 03:24:22;;;;;;;15.83;12.80;;;;;;;17.99;81.52;100500.15;1744881;82;21117;-77
2021/06/15 03:27:07;;;;;;;14.35;12.15;;;;;;;17.99;81.52;100500.15;1744533;81;20928;-76
2021/06/15 03:29:39;;;;;;;14.45;11.88;;;;;;;18.08;81.68;100503.27;1744561;81;20928;-76
2021/06/15 03:32:13;;;;;;;12.53;11.22;;;;;;;18.16;81.64;100503.86;1734229;82;20861;-77
2021/06/15 03:34:53;;;;;;;21.37;12.33;;;;;;;18.26;81.80;100502.52;1733938;82;20956;-77
2021/06/15 03:37:27;;;;;;;15.58;11.50;;;;;;;18.34;81.43;100505.27;1744895;82;21654;-76
2021/06/15 03:39:57;;;;;;;13.08;10.40;;;;;;;18.40;81.49;100506.84;1711173;82;21009;-75
2021/06/15 03:42:29;;;;;;;11.90;10.50;;;;;;;18.48;81.52;100508.80;1744529;80;21398;-75
2021/06/15 03:45:01;;;;;;;25.85;12.18;;;;;;;18.56;81.45;100516.84;1734088;82;20889;-76
2021/06/15 03:47:28;;;;;;;18.87;11.65;;;;;;;18.67;81.41;100518.48;1744600;82;20870;-75
2021/06/15 03:49:55;;;;;;;12.98;10.25;;;;;;;18.76;81.40;100517.59;1744892;80;21112;-75
2021/06/15 03:52:24;;;;;;;11.93;10.80;;;;;;;18.86;81.26;100510.95;1746560;80;20999;-75
2021/06/15 03:54:53;;;;;;;21.55;13.10;;;;;;;18.95;81.21;100511.87;1757847;81;21472;-75
2021/06/15 03:57:19;;;;;;;13.48;11.33;;;;;;;19.07;81.41;100511.17;1741147;81;20896;-75
2021/06/15 03:59:47;;;;;;;15.48;9.73;;;;;;;19.23;81.31;100514.84;1757865;81;21401;-75
2021/06/15 04:02:15;;;;;;;13.05;10.28;;;;;;;19.43;80.95;100516.86;1757808;81;21142;-76
2021/06/15 04:04:42;;;;;;;15.15;9.93;;;;;;;19.61;80.52;100511.53;1757869;81;20959;-76
2021/06/15 04:07:14;;;;;;;14.10;8.10;;;;;;;19.85;80.14;100512.73;1741114;81;20905;-76
2021/06/15 04:09:41;;;;;;;12.80;9.65;;;;;;;20.19;79.51;100514.14;1758105;81;20995;-75
2021/06/15 04:12:11;;;;;;;9.38;7.95;;;;;;;20.64;78.52;100514.39;1757827;81;21416;-76
2021/06/15 04:14:38;;;;;;;11.05;8.88;;;;;;;21.16;77.24;100516.05;1757879;81;21755;-76
2021/06/15 04:17:07;;;;;;;13.60;9.00;;;;;;;21.70;75.73;100506.31;1741009;80;20991;-76
2021/06/15 04:19:43;;;;;;;8.88;7.60;;;;;;;22.27;73.36;100514.25;1741138;81;20932;-76
2021/06/15 04:22:13;;;;;;;8.70;7.45;;;;;;;22.76;70.18;100512.73;1758209;81;21445;-76
2021/06/15 04:24:50;;;;;;;11.55;7.50;;;;;;;23.22;67.29;100508.52;1758009;81;21360;-78
2021/06/15 04:27:21;;;;;;;8.55;7.65;;;;;;;23.58;65.22;100511.42;1721809;82;21123;-76
2021/06/15 04:29:54;;;;;;;11.95;7.83;;;;;;;23.84;63.32;100505.71;1721781;82;20931;-76
2021/06/15 04:32:22;;;;;;;8.35;7.33;;;;;;;24.09;62.46;100500.11;1722348;82;21014;-75
2021/06/15 04:34:55;;;;;;;9.20;7.25;;;;;;;24.34;61.67;100496.12;1721864;82;21350;-75
2021/06/15 04:37:22;;;;;;;10.82;7.30;;;;;;;24.64;61.20;100495.34;1722255;83;20991;-76
2021/06/15 04:39:53;;;;;;;9.13;7.72;;;;;;;24.95;59.89;100496.42;1695412;83;21135;-75
2021/06/15 04:42:43;;;;;;;8.53;7.53;;;;;;;25.20;59.13;100495.06;1722241;83;20939;-78
2021/06/15 04:45:10;;;;;;;8.03;7.17;;;;;;;25.43;58.41;100485.48;1721714;83;20888;-77
2021/06/15 04:47:45;;;;;;;13.50;7.12;;;;;;;25.76;58.04;100484.09;1721889;83;20951;-76
2021/06/15 04:50:16;;;;;;;8.60;7.20;;;;;;;25.96;56.90;100484.27;1721987;83;21463;-78
2021/06/15 04:52:46;;;;;;;10.30;7.25;;;;;;;26.17;55.73;100480.17;1720901;82;21430;-77
2021/06/15 04:55:13;;;;;;;14.15;7.15;;;;;;;26.31;55.04;100486.97;1716277;82;21477;-78
2021/06/15 04:57:42;;;;;;;7.60;6.72;;;;;;;26.53;55.48;100486.36;1716672;83;20849;-77
2021/06/15 05:00:10;;;;;;;7.80;7.00;;;;;;;26.84;54.57;100481.84;1716286;83;22046;-77
2021/06/15 05:02:39;;;;;;;11.55;7.47;;;;;;;27.12;53.82;100485.73;1716715;82;20892;-78
2021/06/15 05:05:09;;;;;;;7.12;6.42;;;;;;;27.31;53.34;100486.84;1716453;83;21142;-78
2021/06/15 05:07:36;;;;;;;9.93;6.53;;;;;;;27.52;53.00;100483.11;1716714;83;20864;-78
2021/06/15 05:10:05;;;;;;;10.13;6.72;;;;;;;27.82;52.19;100482.18;1716601;83;21519;-77
2021/06/15 05:12:38;;;;;;;8.63;6.17;;;;;;;27.99;51.47;100483.96;1716487;83;20947;-77
2021/06/15 05:15:08;;;;;;;6.78;5.45;;;;;;;28.20;51.31;100479.35;1716454;83;21327;-79
2021/06/15 05:17:36;;;;;;;7.67;5.78;;;;;;;28.49;50.46;100480.73;1688944;83;21119;-85
2021/06/15 05:20:07;;;;;;;7.20;4.72;;;;;;;28.82;48.78;100475.72;1716315;83;20944;-81
2021/06/15 05:22:36;;;;;;;14.10;6.65;;;;;;;29.11;48.72;100472.97;1716418;82;20935;-79
2021/06/15 05:25:04;;;;;;;5.40;4.90;;;;;;;29.33;48.11;100468.86;1752062;81;20948;-82
2021/06/15 05:27:33;;;;;;;9.40;5.22;;;;;;;29.43;47.83;100459.43;1752543;80;20972;-78
2021/06/15 05:30:00;;;;;;;6.58;5.75;;;;;;;29.46;47.23;100458.98;1716324;83;21152;-81
2021/06/15 05:32:28;;;;;;;9.13;4.97;;;;;;;29.46;46.58;100455.78;1716185;83;20840;-81
2021/06/15 05:34:55;;;;;;;9.28;5.72;;;;;;;29.51;46.45;100454.58;1716304;83;21010;-79
2021/06/15 05:37:23;;;;;;;9.78;4.78;;;;;;;29.53;46.20;100453.02;1716822;83;20915;-90
2021/06/15 05:39:50;;;;;;;8.38;4.95;;;;;;;29.61;46.87;100458.66;1716866;83;20926;-85
2021/06/15 05:42:16;;;;;;;6.53;5.08;;;;;;;29.82;46.62;100456.94;1717060;83;21110;-83
2021/06/15 05:44:43;;;;;;;6.05;4.78;;;;;;;30.08;45.93;100459.05;1716569;83;20900;-84
2021/06/15 05:47:11;;;;;;;4.75;4.33;;;;;;;30.33;45.54;100455.78;1716467;83;20923;-84
2021/06/15 05:49:37;;;;;;;7.37;4.10;;;;;;;30.62;45.05;100456.58;1716380;82;21022;-85
2021/06/15 05:52:11;;;;;;;5.10;4.35;;;;;;;30.89;44.49;100459.78;1716344;82;20940;-76
2021/06/15 05:54:38;;;;;;;6.70;4.15;;;;;;;31.12;44.17;100457.66;1716465;83;21129;-76
2021/06/15 05:57:05;;;;;;;5.25;4.75;;;;;;;31.31;43.83;100461.94;1716822;82;20950;-77
2021/06/15 05:59:32;;;;;;;7.20;4.50;;;;;;;31.35;42.97;100460.95;1716060;82;21484;-77
2021/06/15 06:01:59;;;;;;;5.37;4.35;;;;;;;31.34;42.94;100463.36;1716388;82;20955;-76
2021/06/15 06:04:36;;;;;;;6.47;4.72;;;;;;;31.32;42.60;100461.41;1716286;83;20887;-76
2021/06/15 06:09:43;;;;;;;5.60;4.75;;;;;;;31.18;43.33;100458.09;1716313;83;21357;-78
2021/06/15 06:12:10;;;;;;;5.17;4.08;;;;;;;31.24;43.44;100461.23;1716533;83;20829;-76
2021/06/15 06:14:37;;;;;;;11.63;4.53;;;;;;;31.43;43.19;100461.16;1716514;83;20900;-76
2021/06/15 06:17:05;;;;;;;5.53;4.30;;;;;;;31.75;42.97;100460.28;1716709;83;20864;-77
2021/06/15 06:19:32;;;;;;;4.60;3.92;;;;;;;32.05;42.51;100458.00;1699368;82;21318;-77
2021/06/15 06:21:58;;;;;;;7.37;4.17;;;;;;;32.26;41.98;100445.17;1752669;82;20956;-77
2021/06/15 06:24:25;;;;;;;5.62;4.37;;;;;;;32.53;41.97;100453.61;1733735;82;21318;-77
2021/06/15 06:26:53;;;;;;;7.45;4.30;;;;;;;32.70;41.08;100459.61;1752466;80;20929;-77
2021/06/15 06:29:21;;;;;;;8.25;5.00;;;;;;;32.71;40.46;100462.09;1752535;80;20888;-77
2021/06/15 06:31:48;;;;;;;5.67;4.17;;;;;;;32.69;40.14;100452.01;1752631;82;21164;-76
2021/06/15 06:34:15;;;;;;;10.65;4.47;;;;;;;32.67;40.46;100451.42;1752662;82;21398;-79
2021/06/15 06:36:42;;;;;;;6.53;3.92;;;;;;;32.76;41.10;100460.83;1752905;82;20932;-77
2021/06/15 06:39:10;;;;;;;6.60;4.10;;;;;;;32.91;40.24;100453.50;1753132;80;21398;-81
2021/06/15 06:41:37;;;;;;;5.75;4.15;;;;;;;32.96;39.74;100453.58;1752571;80;20857;-78
2021/06/15 06:44:04;;;;;;;5.95;4.33;;;;;;;32.99;39.63;100463.95;1752836;80;21802;-79
2021/06/15 06:46:32;;;;;;;4.80;3.90;;;;;;;33.04;39.54;100461.34;1752604;82;21467;-78
2021/06/15 06:48:59;;;;;;;5.87;4.00;;;;;;;33.11;39.96;100452.25;1752710;82;20888;-77
2021/06/15 06:51:26;;;;;;;7.03;4.12;;;;;;;33.24;40.99;100456.00;1752941;82;20939;-78
2021/06/15 06:53:53;;;;;;;5.42;3.60;;;;;;;33.37;39.77;100454.31;1754929;81;20920;-77
2021/06/15 06:56:21;;;;;;;8.10;4.30;;;;;;;33.47;40.44;100446.03;1757950;81;21976;-77
2021/06/15 06:58:47;;;;;;;7.50;4.00;;;;;;;33.67;39.28;100438.75;1758202;81;20872;-79
2021/06/15 07:01:14;;;;;;;9.65;4.05;;;;;;;33.96;39.14;100440.78;1757981;81;20956;-77
2021/06/15 07:03:41;;;;;;;6.92;4.28;;;;;;;34.18;38.87;100437.55;1758124;81;21042;-79
2021/06/15 07:06:08;;;;;;;7.28;3.90;;;;;;;34.29;39.07;100440.41;1757893;81;20996;-78
2021/06/15 07:08:35;;;;;;;7.95;3.95;;;;;;;34.46;38.54;100436.53;1758003;81;21589;-78
2021/06/15 07:11:03;;;;;;;3.77;3.47;;;;;;;34.54;37.50;100442.05;1757815;81;20935;-79
2021/06/15 07:13:31;;;;;;;5.12;4.15;;;;;;;34.60;38.13;100438.86;1757827;81;21011;-79
2021/06/15 07:16:04;;;;;;;7.08;3.55;;;;;;;34.81;37.23;100448.08;1757866;81;20948;-79
2021/06/15 07:18:35;;;;;;;6.47;4.03;;;;;;;35.01;36.62;100446.90;1757905;81;21010;-72
2021/06/15 07:21:00;;;;;;;5.78;3.85;;;;;;;35.19;35.72;100449.81;1757728;81;21565;-74
2021/06/15 07:23:27;;;;;;;5.15;3.58;;;;;;;35.28;36.20;100451.00;1757834;80;21395;-75
2021/06/15 07:25:54;;;;;;;7.40;3.58;;;;;;;35.46;35.28;100453.86;1758162;81;20920;-78
2021/06/15 07:28:21;;;;;;;5.67;3.42;;;;;;;35.63;34.43;100452.35;1758136;81;21046;-77
2021/06/15 07:30:48;;;;;;;5.00;3.90;;;;;;;35.78;34.17;100448.91;1757905;80;20884;-74
2021/06/15 07:33:15;;;;;;;5.10;4.22;;;;;;;35.84;33.61;100452.47;1757887;80;21554;-76
2021/06/15 07:35:42;;;;;;;6.83;3.90;;;;;;;35.92;33.15;100454.70;1758113;80;21401;-77
2021/06/15 07:38:09;;;;;;;10.40;4.00;;;;;;;36.02;32.68;100452.55;1721807;83;20896;-76
2021/06/15 07:40:36;;;;;;;6.72;3.65;;;;;;;36.09;32.97;100447.15;1722031;83;21108;-76
2021/06/15 07:43:03;;;;;;;7.40;4.33;;;;;;;36.24;32.83;100445.06;1721713;82;20994;-75
2021/06/15 07:45:33;;;;;;;7.10;4.47;;;;;;;36.40;33.04;100439.10;1722154;82;21102;-77
2021/06/15 07:47:59;;;;;;;8.65;4.30;;;;;;;36.54;32.45;100438.59;1721713;83;20868;-76
2021/06/15 07:50:26;;;;;;;15.70;4.70;;;;;;;36.52;32.08;100435.56;1722101;83;20880;-74
2021/06/15 07:52:53;;;;;;;8.25;3.95;;;;;;;36.63;32.31;100428.80;1722134;83;20919;-76
2021/06/15 07:55:20;;;;;;;7.65;4.37;;;;;;;36.72;31.76;100421.16;1710195;83;20864;-77
2021/06/15 07:57:47;;;;;;;9.98;4.60;;;;;;;36.84;31.84;100425.53;1708777;84;21137;-76
2021/06/15 08:00:17;;;;;;;8.78;3.77;;;;;;;36.93;32.77;100415.17;1744436;81;20917;-76
2021/06/15 08:02:44;;;;;;;5.58;3.15;;;;;;;37.13;32.82;100414.91;1744503;82;20917;-76
2021/06/15 08:05:12;;;;;;;5.53;3.20;;;;;;;37.27;30.92;100406.44;1744429;80;21492;-75
2021/06/15 08:07:40;;;;;;;4.85;3.08;;;;;;;37.31;30.50;100395.77;1744282;82;20889;-76
2021/06/15 08:10:09;;;;;;;4.62;2.85;;;;;;;37.30;30.41;100392.75;1744785;82;21105;-76
2021/06/15 08:12:35;;;;;;;3.40;3.00;;;;;;;37.22;30.83;100397.41;1744456;80;20967;-77
2021/06/15 08:15:05;;;;;;;3.85;3.02;;;;;;;37.19;31.17;100398.78;1744827;82;20881;-76
2021/06/15 08:17:31;;;;;;;4.53;3.55;;;;;;;37.25;30.70;100398.23;1744503;81;21461;-75
2021/06/15 08:19:58;;;;;;;5.83;3.15;;;;;;;37.27;29.57;100395.49;1744949;81;20869;-77
2021/06/15 08:22:25;;;;;;;10.58;2.95;;;;;;;37.31;30.07;100393.84;1744639;82;21772;-77
2021/06/15 08:24:51;;;;;;;6.10;3.02;;;;;;;37.37;29.40;100399.30;1744497;80;20975;-75
2021/06/15 08:27:18;;;;;;;7.22;2.72;;;;;;;37.44;30.19;100401.20;1744556;81;20853;-77
2021/06/15 08:29:45;;;;;;;6.35;2.47;;;;;;;37.50;29.59;100402.28;1744740;82;20953;-78
2021/06/15 08:32:11;;;;;;;3.15;2.45;;;;;;;37.57;29.70;100399.28;1744629;82;20920;-77
2021/06/15 08:34:38;;;;;;;4.12;2.37;;;;;;;37.63;29.48;100391.89;1744534;82;21649;-77
2021/06/15 08:37:05;;;;;;;6.30;2.60;;;;;;;37.62;28.71;100387.50;1744651;81;21026;-77
2021/06/15 08:39:33;;;;;;;5.03;2.27;;;;;;;37.65;29.63;100392.44;1744692;81;20968;-78
2021/06/15 08:42:00;;;;;;;2.77;2.25;;;;;;;37.66;28.75;100389.40;1744723;82;20916;-77
2021/06/15 08:44:28;;;;;;;3.02;2.12;;;;;;;37.68;29.41;100381.73;1744590;81;20916;-78
2021/06/15 08:46:55;;;;;;;5.80;2.80;;;;;;;37.69;29.23;100383.39;1744850;82;21277;-77
2021/06/15 08:49:23;;;;;;;5.30;2.27;;;;;;;37.67;29.15;100383.40;1664924;84;20955;-77
2021/06/15 08:51:50;;;;;;;4.80;1.90;;;;;;;37.65;29.13;100380.94;1708677;84;21418;-77
2021/06/15 08:54:17;;;;;;;3.87;2.15;;;;;;;37.64;28.53;100379.31;1708599;82;20924;-75
2021/06/15 08:56:45;;;;;;;7.35;2.12;;;;;;;37.64;28.33;100379.31;1687122;80;20941;-76
2021/06/15 08:59:25;;;;;;;6.72;3.02;;;;;;;37.64;28.55;100368.89;1744757;81;21124;-77
2021/06/15 09:02:01;;;;;;;7.55;2.42;;;;;;;37.65;29.13;100378.75;1744378;81;20959;-77
2021/06/15 09:04:28;;;;;;;3.00;2.30;;;;;;;37.63;28.63;100372.73;1744549;81;20916;-77
2021/06/15 09:07:00;;;;;;;3.83;2.10;;;;;;;37.69;29.58;100363.41;1744471;81;20921;-76
2021/06/15 09:09:43;;;;;;;4.37;2.05;;;;;;;37.77;29.01;100362.81;1743614;81;21066;-77
2021/06/15 09:12:15;;;;;;;5.70;2.27;;;;;;;37.76;28.34;100360.38;1744571;81;21143;-76
2021/06/15 09:14:55;;;;;;;7.63;2.13;;;;;;;37.66;26.50;100355.19;1744652;82;21000;-77
2021/06/15 09:17:30;;;;;;;2.45;2.00;;;;;;;37.53;27.47;100360.70;1744782;81;20980;-77
2021/06/15 09:20:11;;;;;;;2.50;2.30;;;;;;;37.45;27.90;100361.26;1744506;82;21462;-78
2021/06/15 09:22:39;;;;;;;3.52;2.00;;;;;;;37.42;28.20;100362.35;1744418;81;20881;-76
2021/06/15 09:25:07;;;;;;;3.60;2.02;;;;;;;37.39;27.85;100351.42;1744574;81;21180;-76
2021/06/15 09:27:36;;;;;;;2.65;2.02;;;;;;;37.34;26.51;100344.05;1744686;82;20972;-77
2021/06/15 09:30:11;;;;;;;4.20;2.12;;;;;;;37.37;28.35;100343.22;1744454;81;20932;-77
2021/06/15 09:32:41;;;;;;;2.70;2.50;;;;;;;37.39;28.38;100344.58;1708267;83;20911;-78
2021/06/15 09:35:15;;;;;;;3.30;2.17;;;;;;;37.38;28.52;100338.85;1708758;82;20978;-76
2021/06/15 09:37:55;;;;;;;4.58;1.90;;;;;;;37.39;28.07;100343.20;1708868;82;21161;-77
2021/06/15 09:40:29;;;;;;;2.02;1.90;;;;;;;37.39;28.37;100332.83;1709063;84;20975;-76
2021/06/15 09:43:10;;;;;;;5.47;2.35;;;;;;;37.38;27.66;100323.80;1708862;84;20932;-76
2021/06/15 09:45:45;;;;;;;2.50;1.57;;;;;;;37.37;28.17;100328.98;1708824;84;20861;-76
2021/06/15 09:48:26;;;;;;;3.42;1.65;;;;;;;37.38;27.92;100322.44;1709002;82;21484;-77
2021/06/15 09:51:03;;;;;;;2.40;2.12;;;;;;;37.41;27.84;100318.32;1708946;84;21130;-77
2021/06/15 09:53:39;;;;;;;2.22;1.67;;;;;;;37.47;27.78;100317.22;1708633;82;21492;-83
2021/06/15 09:56:11;;;;;;;5.28;1.90;;;;;;;37.52;26.72;100323.47;1715506;82;20880;-76
2021/06/15 09:58:55;;;;;;;4.20;1.90;;;;;;;37.47;26.73;100319.95;1716387;83;20931;-74
2021/06/15 10:01:34;;;;;;;3.50;1.70;;;;;;;37.45;27.31;100313.38;1716394;83;21528;-76
2021/06/15 10:04:19;;;;;;;2.47;1.98;;;;;;;37.37;26.58;100305.73;1716251;82;21161;-76
2021/06/15 10:09:52;;;;;;;3.42;1.65;;;;;;;37.50;27.86;100309.80;1798662;79;23075;-76
2021/06/15 10:12:18;;;;;;;1.90;1.67;;;;;;;37.41;28.26;100315.59;1758421;81;20908;-76
2021/06/15 10:14:45;;;;;;;2.58;1.98;;;;;;;37.32;28.07;100304.39;1758410;81;21933;-77
2021/06/15 10:17:12;;;;;;;2.12;1.95;;;;;;;37.27;27.57;100298.39;1758464;80;21356;-77
2021/06/15 10:19:40;;;;;;;2.60;1.87;;;;;;;37.21;28.19;100290.48;1758299;81;20920;-77
2021/06/15 10:22:08;;;;;;;3.60;1.80;;;;;;;37.13;28.63;100289.95;1758242;81;20900;-76
2021/06/15 10:24:40;;;;;;;7.25;2.12;;;;;;;37.11;28.34;100279.84;1758225;81;20952;-76
2021/06/15 10:27:09;;;;;;;2.87;1.90;;;;;;;37.09;29.38;100275.75;1724945;83;21150;-77
2021/06/15 10:29:41;;;;;;;4.20;2.33;;;;;;;37.09;28.79;100275.20;1724599;83;20899;-75
2021/06/15 10:32:17;;;;;;;1.83;1.73;;;;;;;37.14;28.46;100275.73;1725111;83;20979;-76
2021/06/15 10:35:03;;;;;;;2.20;2.05;;;;;;;37.09;28.34;100273.83;1724733;83;20951;-76
2021/06/15 10:37:39;;;;;;;7.78;3.33;;;;;;;37.02;29.08;100264.23;1724796;83;20927;-76
2021/06/15 10:40:17;;;;;;;2.87;2.37;;;;;;;36.89;28.98;100263.73;1724845;83;21195;-75
2021/06/15 10:43:15;;;;;;;6.05;4.53;;;;;;;36.79;29.51;100256.09;1724992;81;21022;-76
2021/06/15 10:45:42;;;;;;;5.47;2.95;;;;;;;36.49;29.25;100262.64;1724820;83;21463;-76
2021/06/15 10:48:17;;;;;;;2.42;2.22;;;;;;;36.30;28.91;100257.44;1724882;83;20935;-75
2021/06/15 10:50:50;;;;;;;4.40;1.67;;;;;;;36.22;29.66;100251.14;1724699;83;21508;-75
2021/06/15 10:53:19;;;;;;;6.45;2.62;;;;;;;36.11;29.48;100253.04;1725137;83;26768;-76
2021/06/15 10:55:56;;;;;;;3.60;2.08;;;;;;;36.15;29.92;100250.05;1724668;83;20915;-77
2021/06/15 11:01:19;;;;;;;1.98;1.87;;;;;;;36.20;29.22;100242.44;1697426;83;21359;-71
2021/06/15 11:03:57;;;;;;;3.27;1.50;;;;;;;36.22;30.11;100242.44;1688458;85;20971;-71
2021/06/15 11:06:32;;;;;;;6.53;2.70;;;;;;;36.24;29.79;100242.14;1717457;83;22342;-73
2021/06/15 11:09:21;;;;;;;1.90;1.65;;;;;;;36.19;29.72;100242.14;1701229;84;21371;-72
2021/06/15 11:12:08;;;;;;;2.65;2.45;;;;;;;35.76;29.39;100242.32;1672202;84;21421;-71
2021/06/15 11:14:37;;;;;;;2.47;2.27;;;;;;;35.35;30.32;100253.59;1686581;85;21019;-73
2021/06/15 11:17:07;;;;;;;3.20;1.90;;;;;;;34.95;30.20;100239.98;1715244;83;20854;-74
2021/06/15 11:19:38;;;;;;;2.20;1.70;;;;;;;34.73;30.40;100235.52;1715133;83;21190;-73
2021/06/15 11:22:12;;;;;;;2.90;1.95;;;;;;;34.60;30.94;100236.74;1714921;83;20902;-73
2021/06/15 11:25:00;;;;;;;3.22;2.33;;;;;;;34.54;31.47;100231.52;1714684;83;20966;-71
2021/06/15 11:27:27;;;;;;;2.08;1.98;;;;;;;34.33;31.79;100231.36;1713823;83;20954;-74
2021/06/15 11:29:57;;;;;;;2.60;2.30;;;;;;;34.14;32.07;100234.98;1714339;83;20883;-73
2021/06/15 11:32:36;;;;;;;2.50;2.35;;;;;;;33.99;33.17;100224.73;1714948;83;21956;-73
2021/06/15 11:35:08;;;;;;;3.65;1.85;;;;;;;33.79;33.35;100228.62;1714706;83;20891;-73
2021/06/15 11:37:51;;;;;;;2.50;2.30;;;;;;;33.47;33.49;100222.52;1714755;83;20973;-73
2021/06/15 11:40:27;;;;;;;3.02;1.80;;;;;;;33.12;34.41;100218.27;1715295;83;20993;-72
2021/06/15 11:43:17;;;;;;;5.47;2.52;;;;;;;32.82;34.81;100214.58;1714764;83;20906;-73
2021/06/15 11:45:50;;;;;;;5.87;2.20;;;;;;;32.62;35.26;100215.09;1714968;83;21111;-73